フォークランド諸島 の空港の天気 - METARとTAF

マウント・プレザント空軍基地 ( EGYP / MPN ) - フォークランド諸島 フォークランド諸島
飛行場実況気象(Metar)
観測時間11/27 04:50 FKST (11/27 07:50 UTC)
風向・風速西北西 6m/s
視程10km以上
天気現象
なし
気温7℃
湿度76%
気圧1022hPa
METAREGYP 270750Z 29012KT CAVOK 07/03 Q1022
過去の天気等 Google飛行場航空写真 Wunderground天気予報

過去48時間のMETAR

飛行場予報(TAF)
発表時間: 11/27 04:29 FKST (11/27 07:29 UTC)
予報対象時間: 27日6時 FKST ~ 28日0時 FKST
風向・風速西北西 8m/s
視程10km以上
なし
27日9時 FKST ~ 27日12時 FKST に徐々に
風向・風速西北西 12m/s 瞬間風速 18m/s
27日18時 FKST ~ 27日21時 FKST に徐々に
風向・風速北北西 13m/s 瞬間風速 18m/s
27日19時 FKST ~ 27日24時 FKST に 確率 40% で一時的に
風向・風速北北西 18m/s 瞬間風速 23m/s
27日19時 FKST ~ 27日24時 FKST に 確率 30% で一時的に
風向・風速不定 4m/s
TAF EGYP 270729Z 2709/2803 30015KT CAVOK
BECMG 2712/2715 30023G35KT
BECMG 2721/2724 33025G35KT 520003
PROB40 TEMPO 2722/2803 33035G45KT 530003
PROB30 TEMPO 2722/2803 VRB07KT 560003